Time;durP1;ratioP1;P1;durP2;ratioP2;P2;SDS_P1;SDS_P2;PMS_P1;PMS_P2;Temp;Humidity;BMP_temperature;BMP_pressure;BME280_temperature;BME280_humidity;BME280_pressure;Samples;Min_cycle;Max_cycle;Signal;HPM_P1;HPM_P2
2022/08/30 00:01:06;;;;;;;;;;;;;;;19.14;62.89;96698.84;5046862;28;19996;-84
2022/08/30 00:03:37;;;;;;;;;;;;;;;19.12;62.70;96701.75;5035146;28;19962;-84
2022/08/30 00:06:05;;;;;;;;;;;;;;;19.08;62.80;96697.25;5048936;28;19967;-84
2022/08/30 00:08:31;;;;;;;;;;;;;;;19.05;62.61;96696.69;5049407;28;19971;-84
2022/08/30 00:10:57;;;;;;;;;;;;;;;19.02;62.59;96697.25;5050420;28;19963;-84
2022/08/30 00:13:23;;;;;;;;;;;;;;;19.00;62.89;96696.72;5043564;28;19962;-84
2022/08/30 00:15:49;;;;;;;;;;;;;;;18.98;62.77;96698.84;5040756;28;19966;-84
2022/08/30 00:18:17;;;;;;;;;;;;;;;18.95;63.32;96695.91;5045991;28;19970;-84
2022/08/30 00:20:44;;;;;;;;;;;;;;;18.92;63.11;96699.06;5034269;28;19969;-84
2022/08/30 00:23:11;;;;;;;;;;;;;;;18.86;63.51;96699.09;5042880;28;19956;-84
2022/08/30 00:25:37;;;;;;;;;;;;;;;18.82;63.22;96687.38;5043263;28;20444;-84
2022/08/30 00:28:03;;;;;;;;;;;;;;;18.78;63.11;96696.94;5044356;28;19963;-84
2022/08/30 00:30:29;;;;;;;;;;;;;;;18.73;63.33;96704.06;5042135;28;20028;-84
2022/08/30 00:32:55;;;;;;;;;;;;;;;18.71;63.47;96708.84;5045706;28;19962;-83
2022/08/30 00:35:21;;;;;;;;;;;;;;;18.65;63.96;96710.72;5044840;28;19961;-84
2022/08/30 00:37:48;;;;;;;;;;;;;;;18.57;63.81;96705.94;5036015;28;19967;-84
2022/08/30 00:40:14;;;;;;;;;;;;;;;18.50;64.53;96698.22;5045713;28;19960;-84
2022/08/30 00:42:41;;;;;;;;;;;;;;;18.45;64.45;96700.84;5047866;28;19976;-84
2022/08/30 00:45:14;;;;;;;;;;;;;;;18.40;64.30;96706.16;5041905;28;19953;-84
2022/08/30 00:47:39;;;;;;;;;;;;;;;18.33;65.05;96711.72;5053967;28;20339;-84
2022/08/30 00:50:07;;;;;;;;;;;;;;;18.28;64.68;96713.53;5038988;28;19966;-84
2022/08/30 00:52:34;;;;;;;;;;;;;;;18.24;65.04;96718.56;5043610;28;19966;-84
2022/08/30 00:55:01;;;;;;;;;;;;;;;18.20;64.82;96712.97;5047863;28;19960;-84
2022/08/30 00:57:28;;;;;;;;;;;;;;;18.15;65.42;96712.16;5042080;28;19959;-85
2022/08/30 00:59:54;;;;;;;;;;;;;;;18.11;65.09;96711.88;5051455;28;19959;-84
2022/08/30 01:02:21;;;;;;;;;;;;;;;18.07;65.57;96717.97;5047944;28;20085;-84
2022/08/30 01:04:47;;;;;;;;;;;;;;;18.02;65.67;96714.25;5045500;28;19956;-85
2022/08/30 01:07:15;;;;;;;;;;;;;;;17.99;65.73;96712.09;5036740;28;20329;-84
2022/08/30 01:09:41;;;;;;;;;;;;;;;17.95;65.69;96707.56;5031666;28;19964;-84
2022/08/30 01:12:08;;;;;;;;;;;;;;;17.91;66.06;96709.13;5048340;28;19962;-84
2022/08/30 01:14:33;;;;;;;;;;;;;;;17.87;66.08;96705.38;5042894;28;20352;-84
2022/08/30 01:17:00;;;;;;;;;;;;;;;17.84;66.28;96698.75;5038709;28;20003;-85
2022/08/30 01:19:33;;;;;;;;;;;;;;;17.80;66.12;96700.28;5044680;28;20326;-84
2022/08/30 01:22:04;;;;;;;;;;;;;;;17.78;66.88;96715.66;5044957;28;19969;-84
2022/08/30 01:24:31;;;;;;;;;;;;;;;17.74;66.60;96714.59;5033551;28;19967;-84
2022/08/30 01:26:57;;;;;;;;;;;;;;;17.69;66.57;96711.91;5042577;28;20002;-84
2022/08/30 01:29:24;;;;;;;;;;;;;;;17.68;66.54;96716.44;5044939;28;19973;-84
2022/08/30 01:31:50;;;;;;;;;;;;;;;17.65;66.67;96706.31;5040353;28;19961;-84
2022/08/30 01:34:16;;;;;;;;;;;;;;;17.62;66.88;96720.91;5045978;28;19974;-85
2022/08/30 01:36:43;;;;;;;;;;;;;;;17.59;66.61;96726.69;5051765;28;20402;-84
2022/08/30 01:39:10;;;;;;;;;;;;;;;17.56;66.65;96716.63;5044652;28;20321;-85
2022/08/30 01:41:36;;;;;;;;;;;;;;;17.54;66.73;96713.41;5045415;28;19977;-85
2022/08/30 01:44:04;;;;;;;;;;;;;;;17.51;66.93;96708.59;5046026;28;20001;-85
2022/08/30 01:46:34;;;;;;;;;;;;;;;17.50;66.85;96708.88;5049117;28;19955;-84
2022/08/30 01:49:02;;;;;;;;;;;;;;;17.49;67.02;96715.22;5041598;28;20324;-85
2022/08/30 01:51:28;;;;;;;;;;;;;;;17.45;67.42;96717.59;5043722;28;19971;-84
2022/08/30 01:53:55;;;;;;;;;;;;;;;17.42;67.32;96710.94;5046396;28;20342;-85
2022/08/30 01:56:22;;;;;;;;;;;;;;;17.40;67.32;96715.69;5060685;28;19962;-85
2022/08/30 01:58:48;;;;;;;;;;;;;;;17.37;67.52;96702.19;5047025;28;19952;-84
2022/08/30 02:01:15;;;;;;;;;;;;;;;17.35;67.88;96707.72;5043960;28;19963;-84
2022/08/30 02:03:42;;;;;;;;;;;;;;;17.31;67.85;96705.84;5046365;28;19956;-85
2022/08/30 02:06:09;;;;;;;;;;;;;;;17.25;68.12;96708.44;5044703;28;19951;-85
2022/08/30 02:08:36;;;;;;;;;;;;;;;17.22;68.08;96713.47;5042438;28;19981;-85
2022/08/30 02:11:03;;;;;;;;;;;;;;;17.20;68.40;96707.63;5047299;28;19957;-84
2022/08/30 02:13:29;;;;;;;;;;;;;;;17.17;68.42;96718.72;5050141;28;19963;-85
2022/08/30 02:15:55;;;;;;;;;;;;;;;17.18;68.38;96715.03;5042134;28;19952;-84
2022/08/30 02:18:22;;;;;;;;;;;;;;;17.16;68.48;96717.91;5034862;28;19968;-85
2022/08/30 02:20:48;;;;;;;;;;;;;;;17.17;68.23;96705.47;5045072;28;19960;-84
2022/08/30 02:23:14;;;;;;;;;;;;;;;17.15;69.04;96710.22;5048723;28;19971;-84
2022/08/30 02:25:40;;;;;;;;;;;;;;;17.15;68.82;96710.22;5045565;28;19980;-84
2022/08/30 02:28:06;;;;;;;;;;;;;;;17.12;68.94;96703.56;5043382;28;19969;-84
2022/08/30 02:30:32;;;;;;;;;;;;;;;17.12;68.82;96711.53;5051980;28;19996;-85
2022/08/30 02:32:58;;;;;;;;;;;;;;;17.10;68.88;96700.38;5047304;28;19958;-85
2022/08/30 02:35:25;;;;;;;;;;;;;;;17.10;68.67;96708.31;5046495;28;20301;-85
2022/08/30 02:37:51;;;;;;;;;;;;;;;17.08;69.04;96707.78;5041264;28;20345;-84
2022/08/30 02:40:17;;;;;;;;;;;;;;;17.07;68.79;96708.03;5047787;28;20318;-85
2022/08/30 02:42:43;;;;;;;;;;;;;;;17.03;69.37;96710.41;5041880;28;19987;-85
2022/08/30 02:45:09;;;;;;;;;;;;;;;17.00;69.40;96698.44;5049043;28;20045;-84
2022/08/30 02:47:35;;;;;;;;;;;;;;;16.97;69.52;96693.66;5050050;28;19973;-85
2022/08/30 02:50:05;;;;;;;;;;;;;;;16.94;69.29;96696.00;5044019;28;20395;-85
2022/08/30 02:52:31;;;;;;;;;;;;;;;16.90;69.25;96689.59;5040110;28;19951;-84
2022/08/30 02:54:58;;;;;;;;;;;;;;;16.89;69.49;96690.66;5049749;28;19987;-85
2022/08/30 02:57:24;;;;;;;;;;;;;;;16.86;69.55;96683.22;5044139;28;20300;-85
2022/08/30 02:59:50;;;;;;;;;;;;;;;16.81;69.51;96679.47;5041495;28;19991;-85
2022/08/30 03:02:16;;;;;;;;;;;;;;;16.79;69.99;96678.88;5044794;28;19965;-85
2022/08/30 03:04:43;;;;;;;;;;;;;;;16.76;70.47;96687.34;5045701;28;19981;-84
2022/08/30 03:07:11;;;;;;;;;;;;;;;16.71;70.21;96666.09;5043234;28;19958;-85
2022/08/30 03:09:37;;;;;;;;;;;;;;;16.70;70.00;96669.81;5046989;28;19958;-85
2022/08/30 03:12:05;;;;;;;;;;;;;;;16.67;70.44;96672.94;5050654;28;19957;-84
2022/08/30 03:14:31;;;;;;;;;;;;;;;16.63;71.04;96669.19;5045929;28;20424;-84
2022/08/30 03:16:57;;;;;;;;;;;;;;;16.61;71.07;96673.97;5047627;28;19964;-85
2022/08/30 03:19:24;;;;;;;;;;;;;;;16.58;71.20;96663.88;5041542;28;19969;-84
2022/08/30 03:21:50;;;;;;;;;;;;;;;16.55;71.55;96665.19;5042566;28;20427;-84
2022/08/30 03:24:16;;;;;;;;;;;;;;;16.54;71.56;96660.13;5047657;28;19968;-84
2022/08/30 03:26:42;;;;;;;;;;;;;;;16.53;71.23;96666.47;5045365;28;20064;-85
2022/08/30 03:29:08;;;;;;;;;;;;;;;16.51;71.71;96666.72;5045177;28;20329;-85
2022/08/30 03:31:34;;;;;;;;;;;;;;;16.51;71.66;96679.16;5043640;28;20052;-84
2022/08/30 03:34:00;;;;;;;;;;;;;;;16.48;71.72;96675.16;5022272;28;19954;-84
2022/08/30 03:36:26;;;;;;;;;;;;;;;16.46;71.52;96676.44;5033462;28;20057;-84
2022/08/30 03:38:52;;;;;;;;;;;;;;;16.43;71.94;96683.06;5044803;28;19994;-85
2022/08/30 03:41:18;;;;;;;;;;;;;;;16.40;71.51;96670.31;5042459;28;20316;-85
2022/08/30 03:43:46;;;;;;;;;;;;;;;16.40;71.34;96667.69;5044971;28;19970;-85
2022/08/30 03:46:12;;;;;;;;;;;;;;;16.37;71.83;96661.00;5038908;28;19969;-85
2022/08/30 03:48:39;;;;;;;;;;;;;;;16.36;71.91;96671.88;5048308;28;19955;-84
2022/08/30 03:51:04;;;;;;;;;;;;;;;16.33;72.22;96675.78;5042896;28;19985;-85
2022/08/30 03:53:30;;;;;;;;;;;;;;;16.31;72.21;96669.94;5049897;28;19962;-85
2022/08/30 03:55:56;;;;;;;;;;;;;;;16.28;72.42;96672.31;5038528;28;19968;-84
2022/08/30 03:58:22;;;;;;;;;;;;;;;16.24;72.26;96664.84;5040054;28;20044;-85
2022/08/30 04:00:48;;;;;;;;;;;;;;;16.22;72.43;96669.59;5061358;28;19957;-85
2022/08/30 04:03:14;;;;;;;;;;;;;;;16.19;72.27;96664.00;5040028;28;19967;-84
2022/08/30 04:05:40;;;;;;;;;;;;;;;16.17;72.98;96674.06;5043899;28;19964;-84
2022/08/30 04:08:06;;;;;;;;;;;;;;;16.15;72.84;96669.00;5046833;28;20004;-85
2022/08/30 04:10:33;;;;;;;;;;;;;;;16.12;73.09;96666.03;5039537;28;20468;-85
2022/08/30 04:12:59;;;;;;;;;;;;;;;16.09;73.24;96669.19;5040621;28;19961;-84
2022/08/30 04:15:24;;;;;;;;;;;;;;;16.03;73.39;96670.97;5045361;28;19966;-85
2022/08/30 04:17:52;;;;;;;;;;;;;;;16.01;73.14;96681.78;5046094;28;20391;-84
2022/08/30 04:20:18;;;;;;;;;;;;;;;16.01;73.38;96681.78;5038005;28;19967;-84
2022/08/30 04:22:44;;;;;;;;;;;;;;;16.00;72.96;96676.75;5049195;28;19975;-85
2022/08/30 04:25:10;;;;;;;;;;;;;;;15.98;72.97;96676.19;5050408;28;20437;-84
2022/08/30 04:27:36;;;;;;;;;;;;;;;15.97;72.79;96678.03;5054980;28;19969;-84
2022/08/30 04:30:02;;;;;;;;;;;;;;;15.97;73.04;96683.34;5044535;28;19966;-84
2022/08/30 04:32:33;;;;;;;;;;;;;;;15.94;73.69;96686.47;5043221;28;20382;-84
2022/08/30 04:34:58;;;;;;;;;;;;;;;15.90;73.84;96690.66;5045059;28;19961;-85
2022/08/30 04:37:25;;;;;;;;;;;;;;;15.87;73.76;96680.56;5045286;28;20050;-85
2022/08/30 04:39:54;;;;;;;;;;;;;;;15.87;74.03;96687.69;5037225;28;19949;-85
2022/08/30 04:42:20;;;;;;;;;;;;;;;15.86;73.82;96686.91;5043880;28;20429;-84
2022/08/30 04:44:46;;;;;;;;;;;;;;;15.83;74.37;96688.22;5043526;28;19966;-85
2022/08/30 04:47:12;;;;;;;;;;;;;;;15.81;74.71;96692.13;5041395;28;19959;-84
2022/08/30 04:49:38;;;;;;;;;;;;;;;15.80;75.06;96693.97;5045144;28;19958;-84
2022/08/30 04:52:05;;;;;;;;;;;;;;;15.79;74.71;96692.38;5048743;28;19958;-84
2022/08/30 04:54:31;;;;;;;;;;;;;;;15.79;75.42;96702.13;5040811;28;19959;-84
2022/08/30 04:56:57;;;;;;;;;;;;;;;15.79;75.43;96700.31;5040167;28;19962;-84
2022/08/30 04:59:23;;;;;;;;;;;;;;;15.78;75.03;96703.19;5047709;28;19958;-84
2022/08/30 05:01:49;;;;;;;;;;;;;;;15.78;75.12;96711.13;5038287;28;20054;-84
2022/08/30 05:04:15;;;;;;;;;;;;;;;15.79;74.65;96710.88;5047367;28;19965;-84
2022/08/30 05:06:41;;;;;;;;;;;;;;;15.82;75.14;96715.69;5046858;28;20447;-84
2022/08/30 05:09:07;;;;;;;;;;;;;;;15.82;75.48;96707.75;5039325;28;19960;-85
2022/08/30 05:11:33;;;;;;;;;;;;;;;15.83;75.61;96717.28;5037347;28;19996;-84
2022/08/30 05:13:58;;;;;;;;;;;;;;;15.86;75.75;96710.72;5050732;28;19947;-84
2022/08/30 05:16:24;;;;;;;;;;;;;;;16.01;75.68;96712.75;5045970;28;20318;-84
2022/08/30 05:18:51;;;;;;;;;;;;;;;16.23;75.16;96713.56;5053264;28;19956;-84
2022/08/30 05:21:25;;;;;;;;;;;;;;;16.53;74.40;96714.13;5045289;28;19968;-84
2022/08/30 05:23:55;;;;;;;;;;;;;;;16.85;73.25;96708.91;5047951;28;19972;-84
2022/08/30 05:26:23;;;;;;;;;;;;;;;17.18;72.05;96702.56;5050021;28;19988;-84
2022/08/30 05:28:49;;;;;;;;;;;;;;;17.51;71.60;96698.00;5047920;28;19965;-84
2022/08/30 05:31:17;;;;;;;;;;;;;;;17.79;70.85;96693.41;5047805;28;20437;-84
2022/08/30 05:33:43;;;;;;;;;;;;;;;18.06;69.73;96685.34;5042559;28;19954;-84
2022/08/30 05:36:10;;;;;;;;;;;;;;;18.33;68.85;96673.72;5047608;28;19965;-84
2022/08/30 05:38:37;;;;;;;;;;;;;;;18.62;68.41;96674.84;5036913;28;20338;-84
2022/08/30 05:41:03;;;;;;;;;;;;;;;18.88;67.17;96666.13;5046119;28;19961;-84
2022/08/30 05:43:29;;;;;;;;;;;;;;;19.15;66.88;96664.00;5047298;28;19969;-85
2022/08/30 05:46:09;;;;;;;;;;;;;;;19.42;65.97;96655.72;5044842;28;19966;-85
2022/08/30 05:48:35;;;;;;;;;;;;;;;19.74;65.08;96657.28;5046340;28;19959;-84
2022/08/30 05:51:02;;;;;;;;;;;;;;;20.00;64.31;96644.66;5047021;28;20440;-85
2022/08/30 05:53:28;;;;;;;;;;;;;;;20.28;63.62;96645.03;5046596;28;19945;-85
2022/08/30 05:55:54;;;;;;;;;;;;;;;20.55;62.99;96647.28;5046536;28;20066;-85
2022/08/30 05:58:20;;;;;;;;;;;;;;;20.79;61.92;96639.41;5050392;28;19992;-84
2022/08/30 06:00:46;;;;;;;;;;;;;;;21.03;61.24;96641.34;5039039;28;19969;-85
2022/08/30 06:03:12;;;;;;;;;;;;;;;21.21;60.98;96630.00;5035028;28;19975;-85
2022/08/30 06:05:38;;;;;;;;;;;;;;;21.39;60.06;96628.47;5048554;28;19960;-85
2022/08/30 06:08:03;;;;;;;;;;;;;;;21.58;59.68;96619.75;5041353;28;20422;-85
2022/08/30 06:10:29;;;;;;;;;;;;;;;21.67;58.52;96612.72;5046517;28;19953;-85
2022/08/30 06:12:56;;;;;;;;;;;;;;;21.51;57.88;96620.09;5043121;28;20049;-85
2022/08/30 06:15:22;;;;;;;;;;;;;;;21.40;58.23;96622.06;5044338;28;19965;-85
2022/08/30 06:17:48;;;;;;;;;;;;;;;21.52;58.47;96615.56;5054742;28;19996;-85
2022/08/30 06:20:17;;;;;;;;;;;;;;;21.71;58.61;96627.06;5045237;28;19994;-86
2022/08/30 06:22:43;;;;;;;;;;;;;;;21.78;58.28;96621.41;5044527;28;19964;-85
2022/08/30 06:25:09;;;;;;;;;;;;;;;21.84;58.08;96626.41;5046845;28;20053;-85
2022/08/30 06:27:35;;;;;;;;;;;;;;;21.86;57.22;96613.56;5044437;28;19956;-86
2022/08/30 06:30:01;;;;;;;;;;;;;;;21.87;57.67;96620.47;5046211;28;19954;-86
2022/08/30 06:32:27;;;;;;;;;;;;;;;21.85;57.74;96613.84;5044912;28;19953;-86
2022/08/30 06:34:53;;;;;;;;;;;;;;;21.74;57.86;96612.38;5046494;28;20019;-86
2022/08/30 06:37:19;;;;;;;;;;;;;;;21.57;58.73;96626.97;5036873;28;19957;-85
2022/08/30 06:39:45;;;;;;;;;;;;;;;21.48;58.94;96629.47;5048252;28;20023;-85
2022/08/30 06:42:10;;;;;;;;;;;;;;;21.59;58.89;96632.03;5044402;28;19999;-85
2022/08/30 06:44:36;;;;;;;;;;;;;;;21.68;58.13;96623.09;5040941;28;20048;-85
2022/08/30 06:47:02;;;;;;;;;;;;;;;21.83;58.85;96626.69;5042730;28;19969;-85
2022/08/30 06:49:28;;;;;;;;;;;;;;;22.02;58.32;96626.72;5045015;28;19972;-85
2022/08/30 06:51:54;;;;;;;;;;;;;;;22.04;57.31;96617.31;5037085;28;20310;-85
2022/08/30 06:54:20;;;;;;;;;;;;;;;21.98;57.38;96621.13;5049804;28;20419;-85
2022/08/30 06:56:46;;;;;;;;;;;;;;;21.98;56.93;96626.47;5044122;28;19953;-85
2022/08/30 06:59:12;;;;;;;;;;;;;;;22.05;56.79;96626.16;5035292;28;19969;-85
2022/08/30 07:01:38;;;;;;;;;;;;;;;22.14;57.59;96628.97;5036488;28;19965;-85
2022/08/30 07:04:04;;;;;;;;;;;;;;;22.31;57.17;96621.28;5044364;28;19978;-85
2022/08/30 07:06:31;;;;;;;;;;;;;;;22.44;57.33;96623.22;5050580;28;19960;-85
2022/08/30 07:08:57;;;;;;;;;;;;;;;22.54;57.39;96632.97;5035911;28;19960;-85
2022/08/30 07:11:31;;;;;;;;;;;;;;;22.68;56.69;96628.47;5047027;28;19967;-85
2022/08/30 07:13:57;;;;;;;;;;;;;;;22.87;56.37;96625.00;5061253;28;20029;-85
2022/08/30 07:16:22;;;;;;;;;;;;;;;23.00;54.58;96612.75;5044096;28;19952;-85
2022/08/30 07:18:55;;;;;;;;;;;;;;;23.03;54.55;96612.94;5045717;28;20446;-85
2022/08/30 07:21:22;;;;;;;;;;;;;;;23.02;55.32;96621.28;5044249;28;19955;-84
2022/08/30 07:23:48;;;;;;;;;;;;;;;22.98;54.99;96617.59;5039551;28;19980;-85
2022/08/30 07:26:16;;;;;;;;;;;;;;;22.90;54.97;96613.69;5043614;28;20004;-85
2022/08/30 07:28:43;;;;;;;;;;;;;;;22.89;55.57;96625.50;5043925;28;19955;-85
2022/08/30 07:31:10;;;;;;;;;;;;;;;22.94;55.67;96619.25;5043515;28;19962;-85
2022/08/30 07:33:36;;;;;;;;;;;;;;;23.01;56.21;96631.19;5049254;28;19972;-85
2022/08/30 07:36:04;;;;;;;;;;;;;;;23.10;55.69;96626.75;5043651;28;19963;-85
2022/08/30 07:38:29;;;;;;;;;;;;;;;22.97;54.91;96618.66;5042632;28;19952;-83
2022/08/30 07:40:59;;;;;;;;;;;;;;;22.95;56.30;96640.38;5042208;28;20324;-83
2022/08/30 07:43:29;;;;;;;;;;;;;;;22.98;55.66;96636.31;5046988;28;19962;-83
2022/08/30 07:45:59;;;;;;;;;;;;;;;23.01;55.73;96633.06;5043161;28;19954;-83
2022/08/30 07:48:25;;;;;;;;;;;;;;;23.10;55.67;96642.03;5045668;28;19951;-83
2022/08/30 07:50:51;;;;;;;;;;;;;;;23.10;54.46;96632.09;5040218;28;19954;-83
2022/08/30 07:53:17;;;;;;;;;;;;;;;23.07;55.59;96635.34;5043655;28;20050;-83
2022/08/30 07:55:42;;;;;;;;;;;;;;;23.13;55.20;96632.59;5048645;28;19989;-83
2022/08/30 07:58:08;;;;;;;;;;;;;;;23.14;55.14;96628.84;5046644;28;19996;-82
2022/08/30 08:00:34;;;;;;;;;;;;;;;23.24;55.62;96634.00;5037076;28;19963;-83
2022/08/30 08:03:05;;;;;;;;;;;;;;;23.43;55.70;96636.63;5045351;28;20313;-83
2022/08/30 08:05:34;;;;;;;;;;;;;;;23.57;54.63;96628.59;5039677;28;19953;-83
2022/08/30 08:08:00;;;;;;;;;;;;;;;23.73;54.18;96618.38;5045273;28;20327;-82
2022/08/30 08:10:26;;;;;;;;;;;;;;;23.88;54.52;96621.56;5038863;28;19960;-82
2022/08/30 08:12:52;;;;;;;;;;;;;;;24.11;53.78;96613.63;5047589;28;20467;-82
2022/08/30 08:15:18;;;;;;;;;;;;;;;24.34;52.89;96613.63;5043258;28;20021;-82
2022/08/30 08:17:44;;;;;;;;;;;;;;;24.52;52.65;96613.50;5043356;28;19958;-82
2022/08/30 08:20:10;;;;;;;;;;;;;;;24.68;51.65;96600.53;5044303;28;19968;-82
2022/08/30 08:22:36;;;;;;;;;;;;;;;24.84;51.47;96603.66;5045189;28;20008;-82
2022/08/30 08:25:02;;;;;;;;;;;;;;;24.99;51.79;96615.09;5043919;28;19964;-82
2022/08/30 08:27:28;;;;;;;;;;;;;;;25.08;51.60;96619.41;5042333;28;19981;-82
2022/08/30 08:29:54;;;;;;;;;;;;;;;25.18;50.47;96604.13;5041337;28;20007;-82
2022/08/30 08:32:20;;;;;;;;;;;;;;;25.29;52.08;96621.59;5044902;28;20409;-82
2022/08/30 08:34:45;;;;;;;;;;;;;;;25.45;52.04;96613.94;5061862;28;20015;-82
2022/08/30 08:37:11;;;;;;;;;;;;;;;25.63;51.59;96606.72;5040544;28;19993;-82
2022/08/30 08:39:37;;;;;;;;;;;;;;;25.81;50.83;96611.06;5035110;28;19961;-82
2022/08/30 08:42:19;;;;;;;;;;;;;;;25.88;49.96;96606.00;5039064;28;20408;-82
2022/08/30 08:45:03;;;;;;;;;;;;;;;25.98;50.20;96607.66;5036496;28;19968;-82
2022/08/30 08:47:48;;;;;;;;;;;;;;;26.07;48.38;96610.34;5048191;28;19958;-83
2022/08/30 08:50:16;;;;;;;;;;;;;;;26.10;49.49;96621.28;5036850;28;20341;-82
2022/08/30 08:55:30;;;;;;;;;;;;;;;26.31;49.39;96621.44;5040105;28;19957;-83
2022/08/30 08:57:56;;;;;;;;;;;;;;;26.48;49.32;96622.53;5041226;28;19950;-83
2022/08/30 09:00:22;;;;;;;;;;;;;;;26.60;47.95;96609.28;5042404;28;19956;-83
2022/08/30 09:02:56;;;;;;;;;;;;;;;26.66;47.18;96618.00;5044263;28;20338;-83
2022/08/30 09:05:24;;;;;;;;;;;;;;;26.64;45.89;96615.59;5029998;28;19964;-82
2022/08/30 09:07:55;;;;;;;;;;;;;;;26.66;47.25;96618.00;5037261;28;19960;-82
2022/08/30 09:10:21;;;;;;;;;;;;;;;26.69;44.67;96618.16;5035123;28;20322;-82
2022/08/30 09:12:47;;;;;;;;;;;;;;;26.69;46.34;96625.41;5034752;28;19971;-82
2022/08/30 09:15:16;;;;;;;;;;;;;;;26.68;48.29;96643.47;5044186;28;19978;-82
2022/08/30 09:17:50;;;;;;;;;;;;;;;26.69;45.90;96622.72;5041839;28;19966;-82
2022/08/30 09:20:28;;;;;;;;;;;;;;;26.65;44.93;96616.41;5036323;28;19958;-82
2022/08/30 09:22:54;;;;;;;;;;;;;;;26.62;45.75;96627.81;5046303;28;20425;-83
2022/08/30 09:25:31;;;;;;;;;;;;;;;26.59;46.10;96623.84;5044640;28;19984;-82
2022/08/30 09:28:11;;;;;;;;;;;;;;;26.62;45.64;96620.50;5041891;28;19965;-83
2022/08/30 09:30:37;;;;;;;;;;;;;;;26.67;45.13;96622.28;5044091;28;19957;-82
2022/08/30 09:33:06;;;;;;;;;;;;;;;26.65;43.35;96611.81;5052941;28;19959;-82
2022/08/30 09:35:34;;;;;;;;;;;;;;;26.69;45.25;96620.03;5044237;28;19954;-83
2022/08/30 09:38:08;;;;;;;;;;;;;;;26.73;46.10;96620.97;5041306;28;19958;-82
2022/08/30 09:40:33;;;;;;;;;;;;;;;26.75;42.62;96602.63;5039571;28;19951;-82
2022/08/30 09:43:07;;;;;;;;;;;;;;;26.73;43.30;96596.75;5040619;28;19956;-83
2022/08/30 09:45:35;;;;;;;;;;;;;;;26.77;44.04;96605.00;5043726;28;20358;-82
2022/08/30 09:48:20;;;;;;;;;;;;;;;26.79;44.55;96602.78;5045994;28;19954;-82
2022/08/30 09:50:48;;;;;;;;;;;;;;;26.81;42.74;96590.59;5057246;28;19961;-82
2022/08/30 09:53:19;;;;;;;;;;;;;;;26.81;42.74;96595.97;5043233;28;19948;-82
2022/08/30 09:55:45;;;;;;;;;;;;;;;26.77;43.54;96589.63;5044266;28;19956;-81
2022/08/30 09:58:34;;;;;;;;;;;;;;;26.76;42.85;96582.69;5044713;28;20038;-82
2022/08/30 10:01:14;;;;;;;;;;;;;;;26.78;43.66;96590.44;5015764;28;19957;-82
2022/08/30 10:03:43;;;;;;;;;;;;;;;26.85;42.72;96580.75;5046372;28;19967;-82
2022/08/30 10:06:25;;;;;;;;;;;;;;;26.93;42.85;96589.94;5051050;28;19969;-83
2022/08/30 10:08:51;;;;;;;;;;;;;;;26.92;42.94;96594.53;5043657;28;19949;-81
2022/08/30 10:11:22;;;;;;;;;;;;;;;27.01;42.44;96588.34;5049427;28;19948;-82
2022/08/30 10:14:00;;;;;;;;;;;;;;;27.09;41.87;96591.00;5044581;28;20303;-82
2022/08/30 10:16:51;;;;;;;;;;;;;;;27.16;42.22;96576.25;5046680;28;19950;-82
2022/08/30 10:19:20;;;;;;;;;;;;;;;27.21;40.43;96568.78;5042658;28;19955;-81
2022/08/30 10:21:56;;;;;;;;;;;;;;;27.33;41.31;96568.16;5045950;28;20410;-82
2022/08/30 10:24:39;;;;;;;;;;;;;;;27.51;40.43;96558.88;5038673;28;20338;-82
2022/08/30 10:27:07;;;;;;;;;;;;;;;27.65;40.19;96561.31;5041801;28;19981;-82
2022/08/30 10:29:42;;;;;;;;;;;;;;;27.78;38.93;96551.41;5049379;28;19965;-82
2022/08/30 10:32:22;;;;;;;;;;;;;;;27.88;38.41;96559.16;5051452;28;19953;-82
2022/08/30 10:34:48;;;;;;;;;;;;;;;28.10;40.22;96557.28;5025986;28;19945;-81
2022/08/30 10:37:16;;;;;;;;;;;;;;;28.32;41.02;96559.63;5046821;28;19959;-82
2022/08/30 10:39:47;;;;;;;;;;;;;;;28.50;39.69;96546.81;5047509;28;19955;-82
2022/08/30 10:42:20;;;;;;;;;;;;;;;28.65;36.77;96540.00;5047578;28;19952;-82
2022/08/30 10:44:51;;;;;;;;;;;;;;;28.77;37.95;96547.34;5044790;28;19977;-82
2022/08/30 10:47:30;;;;;;;;;;;;;;;28.84;36.04;96541.41;5046496;28;19955;-81
2022/08/30 10:50:04;;;;;;;;;;;;;;;28.88;36.22;96545.00;5043318;28;20403;-82
2022/08/30 10:52:34;;;;;;;;;;;;;;;28.90;35.23;96540.84;5042516;28;19964;-82
2022/08/30 10:55:12;;;;;;;;;;;;;;;28.92;35.71;96549.41;5043168;28;19960;-82
2022/08/30 10:57:38;;;;;;;;;;;;;;;29.08;33.73;96537.94;5045863;28;19959;-82
2022/08/30 11:00:07;;;;;;;;;;;;;;;29.22;35.41;96538.44;5045256;28;19966;-82
2022/08/30 11:02:39;;;;;;;;;;;;;;;29.31;34.32;96544.50;5045971;28;19957;-81
2022/08/30 11:05:24;;;;;;;;;;;;;;;29.39;34.14;96542.06;5041457;28;20030;-81
2022/08/30 11:08:28;;;;;;;;;;;;;;;29.60;34.93;96556.22;5046312;28;19954;-81
2022/08/30 11:10:55;;;;;;;;;;;;;;;29.66;32.86;96546.75;5012089;28;19952;-80
2022/08/30 11:13:23;;;;;;;;;;;;;;;29.62;33.39;96551.28;5013698;28;20371;-81
2022/08/30 11:15:52;;;;;;;;;;;;;;;29.65;35.07;96553.31;5029006;28;19955;-81
2022/08/30 11:18:19;;;;;;;;;;;;;;;29.70;33.98;96550.41;5054319;28;20322;-82
2022/08/30 11:20:48;;;;;;;;;;;;;;;29.77;34.98;96554.44;5046645;28;19956;-81
2022/08/30 11:23:20;;;;;;;;;;;;;;;29.69;35.58;96561.50;5040349;28;20359;-81
2022/08/30 11:25:46;;;;;;;;;;;;;;;29.47;33.07;96544.63;5049893;28;19979;-80
2022/08/30 11:28:32;;;;;;;;;;;;;;;29.45;34.90;96557.69;5049361;28;19968;-80
2022/08/30 11:31:08;;;;;;;;;;;;;;;29.22;35.28;96562.75;5039353;28;20335;-81
2022/08/30 11:33:40;;;;;;;;;;;;;;;29.16;36.54;96568.72;5044292;28;20336;-81
2022/08/30 11:36:07;;;;;;;;;;;;;;;29.02;35.51;96563.59;5036117;28;19948;-81
2022/08/30 11:38:33;;;;;;;;;;;;;;;28.92;34.54;96556.72;5047203;28;19958;-81
2022/08/30 11:41:10;;;;;;;;;;;;;;;28.68;35.06;96557.44;5054302;28;20018;-81
2022/08/30 11:43:39;;;;;;;;;;;;;;;28.53;35.52;96564.22;5055625;28;19970;-81
2022/08/30 11:46:25;;;;;;;;;;;;;;;28.40;34.92;96562.59;5038500;28;19953;-80
2022/08/30 11:48:53;;;;;;;;;;;;;;;28.37;36.03;96558.66;5026089;28;19947;-81
2022/08/30 11:51:22;;;;;;;;;;;;;;;28.42;37.06;96558.44;5043582;28;20423;-81
2022/08/30 11:54:01;;;;;;;;;;;;;;;28.54;37.13;96565.81;5046449;28;19947;-81
2022/08/30 11:56:32;;;;;;;;;;;;;;;28.70;37.72;96563.28;5057471;28;19952;-81
2022/08/30 11:58:58;;;;;;;;;;;;;;;28.87;36.69;96555.03;5046380;28;19961;-81
2022/08/30 12:01:24;;;;;;;;;;;;;;;29.05;35.75;96552.13;5059661;28;19962;-82
2022/08/30 12:03:55;;;;;;;;;;;;;;;29.19;35.86;96549.13;5045040;28;20000;-81
2022/08/30 12:06:58;;;;;;;;;;;;;;;29.49;36.23;96545.09;5045029;28;19955;-81
2022/08/30 12:09:25;;;;;;;;;;;;;;;29.85;33.98;96540.00;5007038;28;19958;-81
2022/08/30 12:11:59;;;;;;;;;;;;;;;29.91;32.06;96531.31;5038983;28;20430;-81
2022/08/30 12:14:46;;;;;;;;;;;;;;;29.94;32.70;96530.66;5052828;28;19959;-82
2022/08/30 12:20:14;;;;;;;;;;;;;;;29.68;34.50;96549.91;5048127;28;19957;-81
2022/08/30 12:22:40;;;;;;;;;;;;;;;29.70;33.91;96542.28;5042680;28;19957;-81
2022/08/30 12:25:16;;;;;;;;;;;;;;;29.66;33.64;96535.94;5042062;28;20002;-81
2022/08/30 12:27:42;;;;;;;;;;;;;;;29.61;32.80;96528.09;5040912;28;20334;-81
2022/08/30 12:30:08;;;;;;;;;;;;;;;29.82;34.70;96536.09;5043462;28;20016;-81
2022/08/30 12:32:41;;;;;;;;;;;;;;;30.12;34.75;96530.38;5042672;28;19967;-81
2022/08/30 12:35:16;;;;;;;;;;;;;;;30.30;33.93;96523.59;5045649;28;19959;-81
2022/08/30 12:37:42;;;;;;;;;;;;;;;30.40;33.92;96532.31;5046309;28;20338;-82
2022/08/30 12:40:14;;;;;;;;;;;;;;;30.50;33.81;96524.50;5032384;28;20442;-81
2022/08/30 12:42:50;;;;;;;;;;;;;;;30.64;32.43;96509.75;5046290;28;20515;-81
2022/08/30 12:45:19;;;;;;;;;;;;;;;30.62;33.00;96514.75;5032669;28;20028;-82
2022/08/30 12:47:48;;;;;;;;;;;;;;;30.70;32.97;96516.50;5037799;28;19949;-81
2022/08/30 12:50:18;;;;;;;;;;;;;;;30.80;33.18;96501.66;5043519;28;19964;-81
2022/08/30 12:52:46;;;;;;;;;;;;;;;30.91;33.80;96508.97;5047540;28;19956;-81
2022/08/30 12:55:17;;;;;;;;;;;;;;;30.89;31.32;96495.00;5045051;28;19960;-80
2022/08/30 12:57:57;;;;;;;;;;;;;;;30.74;32.73;96512.75;5054829;28;19964;-80
2022/08/30 13:00:25;;;;;;;;;;;;;;;30.41;31.92;96504.94;5041378;28;20327;-83